sensor_id;sensor_type;location;lat;lon;timestamp;temperature;humidity
21335;DHT22;69435;52.670;13.544;2023-08-06T00:00:15;20.50;62.90
21335;DHT22;69435;52.670;13.544;2023-08-06T00:03:01;20.50;62.80
21335;DHT22;69435;52.670;13.544;2023-08-06T00:05:47;20.50;62.90
21335;DHT22;69435;52.670;13.544;2023-08-06T00:08:33;20.50;62.70
21335;DHT22;69435;52.670;13.544;2023-08-06T00:11:19;20.50;62.80
21335;DHT22;69435;52.670;13.544;2023-08-06T00:14:05;20.50;62.70
21335;DHT22;69435;52.670;13.544;2023-08-06T00:16:51;20.50;62.70
21335;DHT22;69435;52.670;13.544;2023-08-06T00:19:37;20.50;62.80
21335;DHT22;69435;52.670;13.544;2023-08-06T00:22:23;20.50;62.90
21335;DHT22;69435;52.670;13.544;2023-08-06T00:25:09;20.50;63.00
21335;DHT22;69435;52.670;13.544;2023-08-06T00:27:55;20.50;63.10
21335;DHT22;69435;52.670;13.544;2023-08-06T00:30:42;20.50;63.10
21335;DHT22;69435;52.670;13.544;2023-08-06T00:33:28;20.50;63.20
21335;DHT22;69435;52.670;13.544;2023-08-06T00:36:14;20.50;63.20
21335;DHT22;69435;52.670;13.544;2023-08-06T00:39:01;20.50;63.20
21335;DHT22;69435;52.670;13.544;2023-08-06T00:41:47;20.50;63.30
21335;DHT22;69435;52.670;13.544;2023-08-06T00:44:33;20.60;63.50
21335;DHT22;69435;52.670;13.544;2023-08-06T00:47:19;20.50;63.70
21335;DHT22;69435;52.670;13.544;2023-08-06T00:50:07;20.50;63.70
21335;DHT22;69435;52.670;13.544;2023-08-06T00:52:54;20.50;63.70
21335;DHT22;69435;52.670;13.544;2023-08-06T00:55:41;20.50;63.60
21335;DHT22;69435;52.670;13.544;2023-08-06T00:58:30;20.50;63.50
21335;DHT22;69435;52.670;13.544;2023-08-06T01:01:16;20.50;63.50
21335;DHT22;69435;52.670;13.544;2023-08-06T01:04:02;20.50;63.50
21335;DHT22;69435;52.670;13.544;2023-08-06T01:07:02;20.50;63.60
21335;DHT22;69435;52.670;13.544;2023-08-06T01:13:17;20.40;64.00
21335;DHT22;69435;52.670;13.544;2023-08-06T01:16:11;20.30;64.20
21335;DHT22;69435;52.670;13.544;2023-08-06T01:19:16;20.30;64.50
21335;DHT22;69435;52.670;13.544;2023-08-06T01:22:02;20.30;64.60
21335;DHT22;69435;52.670;13.544;2023-08-06T01:24:50;20.30;65.10
21335;DHT22;69435;52.670;13.544;2023-08-06T01:27:48;20.20;64.80
21335;DHT22;69435;52.670;13.544;2023-08-06T01:30:37;20.30;65.10
21335;DHT22;69435;52.670;13.544;2023-08-06T01:33:27;20.20;64.90
21335;DHT22;69435;52.670;13.544;2023-08-06T01:36:18;20.20;65.10
21335;DHT22;69435;52.670;13.544;2023-08-06T01:39:06;20.20;65.30
21335;DHT22;69435;52.670;13.544;2023-08-06T01:41:52;20.10;65.40
21335;DHT22;69435;52.670;13.544;2023-08-06T01:44:38;20.10;65.40
21335;DHT22;69435;52.670;13.544;2023-08-06T01:47:24;20.10;65.60
21335;DHT22;69435;52.670;13.544;2023-08-06T01:50:10;20.10;65.80
21335;DHT22;69435;52.670;13.544;2023-08-06T01:52:56;20.10;65.90
21335;DHT22;69435;52.670;13.544;2023-08-06T01:55:42;20.10;66.00
21335;DHT22;69435;52.670;13.544;2023-08-06T01:58:28;20.00;66.30
21335;DHT22;69435;52.670;13.544;2023-08-06T02:01:14;20.00;66.50
21335;DHT22;69435;52.670;13.544;2023-08-06T02:04:00;20.00;66.70
21335;DHT22;69435;52.670;13.544;2023-08-06T02:06:46;19.90;66.70
21335;DHT22;69435;52.670;13.544;2023-08-06T02:09:32;20.00;66.80
21335;DHT22;69435;52.670;13.544;2023-08-06T02:12:18;19.90;66.90
21335;DHT22;69435;52.670;13.544;2023-08-06T02:15:04;19.90;67.00
21335;DHT22;69435;52.670;13.544;2023-08-06T02:17:51;19.90;67.00
21335;DHT22;69435;52.670;13.544;2023-08-06T02:20:37;19.90;67.00
21335;DHT22;69435;52.670;13.544;2023-08-06T02:23:23;19.90;67.20
21335;DHT22;69435;52.670;13.544;2023-08-06T02:26:10;19.90;67.40
21335;DHT22;69435;52.670;13.544;2023-08-06T02:28:56;19.90;67.50
21335;DHT22;69435;52.670;13.544;2023-08-06T02:31:42;19.80;67.40
21335;DHT22;69435;52.670;13.544;2023-08-06T02:34:28;19.80;67.40
21335;DHT22;69435;52.670;13.544;2023-08-06T02:37:14;19.80;67.30
21335;DHT22;69435;52.670;13.544;2023-08-06T02:39:59;19.80;67.40
21335;DHT22;69435;52.670;13.544;2023-08-06T02:42:45;19.80;67.30
21335;DHT22;69435;52.670;13.544;2023-08-06T02:45:31;19.80;67.40
21335;DHT22;69435;52.670;13.544;2023-08-06T02:48:17;19.80;67.40
21335;DHT22;69435;52.670;13.544;2023-08-06T02:51:04;19.80;67.30
21335;DHT22;69435;52.670;13.544;2023-08-06T02:53:50;19.80;67.30
21335;DHT22;69435;52.670;13.544;2023-08-06T02:56:35;19.70;67.40
21335;DHT22;69435;52.670;13.544;2023-08-06T02:59:22;19.70;67.50
21335;DHT22;69435;52.670;13.544;2023-08-06T03:02:07;19.70;67.50
21335;DHT22;69435;52.670;13.544;2023-08-06T03:04:53;19.70;67.60
21335;DHT22;69435;52.670;13.544;2023-08-06T03:07:39;19.70;67.60
21335;DHT22;69435;52.670;13.544;2023-08-06T03:10:27;19.70;67.60
21335;DHT22;69435;52.670;13.544;2023-08-06T03:13:13;19.60;67.50
21335;DHT22;69435;52.670;13.544;2023-08-06T03:15:59;19.60;67.50
21335;DHT22;69435;52.670;13.544;2023-08-06T03:18:46;19.60;67.60
21335;DHT22;69435;52.670;13.544;2023-08-06T03:21:33;19.60;67.40
21335;DHT22;69435;52.670;13.544;2023-08-06T03:24:20;19.60;67.40
21335;DHT22;69435;52.670;13.544;2023-08-06T03:27:07;19.50;67.60
21335;DHT22;69435;52.670;13.544;2023-08-06T03:29:55;19.50;67.90
21335;DHT22;69435;52.670;13.544;2023-08-06T03:32:41;19.50;67.80
21335;DHT22;69435;52.670;13.544;2023-08-06T03:35:27;19.50;68.00
21335;DHT22;69435;52.670;13.544;2023-08-06T03:38:13;19.50;68.00
21335;DHT22;69435;52.670;13.544;2023-08-06T03:40:59;19.50;67.90
21335;DHT22;69435;52.670;13.544;2023-08-06T03:43:45;19.50;67.90
21335;DHT22;69435;52.670;13.544;2023-08-06T03:46:31;19.50;67.90
21335;DHT22;69435;52.670;13.544;2023-08-06T03:49:20;19.50;68.00
21335;DHT22;69435;52.670;13.544;2023-08-06T03:52:06;19.50;68.00
21335;DHT22;69435;52.670;13.544;2023-08-06T03:54:53;19.50;68.00
21335;DHT22;69435;52.670;13.544;2023-08-06T03:57:39;19.50;68.00
21335;DHT22;69435;52.670;13.544;2023-08-06T04:00:25;19.50;68.10
21335;DHT22;69435;52.670;13.544;2023-08-06T04:03:12;19.50;68.10
21335;DHT22;69435;52.670;13.544;2023-08-06T04:05:58;19.50;68.10
21335;DHT22;69435;52.670;13.544;2023-08-06T04:08:45;19.50;68.10
21335;DHT22;69435;52.670;13.544;2023-08-06T04:11:31;19.50;68.90
21335;DHT22;69435;52.670;13.544;2023-08-06T04:14:17;19.50;68.10
21335;DHT22;69435;52.670;13.544;2023-08-06T04:17:03;19.50;68.30
21335;DHT22;69435;52.670;13.544;2023-08-06T04:19:51;19.50;68.30
21335;DHT22;69435;52.670;13.544;2023-08-06T04:22:38;19.50;68.30
21335;DHT22;69435;52.670;13.544;2023-08-06T04:25:25;19.50;68.20
21335;DHT22;69435;52.670;13.544;2023-08-06T04:28:11;19.60;68.20
21335;DHT22;69435;52.670;13.544;2023-08-06T04:30:57;19.60;68.10
21335;DHT22;69435;52.670;13.544;2023-08-06T04:33:44;19.60;68.10
21335;DHT22;69435;52.670;13.544;2023-08-06T04:36:30;19.60;68.10
21335;DHT22;69435;52.670;13.544;2023-08-06T04:39:16;19.60;68.10
21335;DHT22;69435;52.670;13.544;2023-08-06T04:42:02;19.60;67.90
21335;DHT22;69435;52.670;13.544;2023-08-06T04:44:48;19.60;67.90
21335;DHT22;69435;52.670;13.544;2023-08-06T04:47:35;19.70;68.20
21335;DHT22;69435;52.670;13.544;2023-08-06T04:50:20;19.60;68.70
21335;DHT22;69435;52.670;13.544;2023-08-06T04:53:06;19.60;67.90
21335;DHT22;69435;52.670;13.544;2023-08-06T04:55:52;19.70;68.00
21335;DHT22;69435;52.670;13.544;2023-08-06T04:58:38;19.70;68.10
21335;DHT22;69435;52.670;13.544;2023-08-06T05:01:25;19.70;68.00
21335;DHT22;69435;52.670;13.544;2023-08-06T05:04:11;19.70;68.00
21335;DHT22;69435;52.670;13.544;2023-08-06T05:06:57;19.70;67.90
21335;DHT22;69435;52.670;13.544;2023-08-06T05:09:43;19.70;68.00
21335;DHT22;69435;52.670;13.544;2023-08-06T05:12:29;19.80;68.00
21335;DHT22;69435;52.670;13.544;2023-08-06T05:15:17;19.80;67.90
21335;DHT22;69435;52.670;13.544;2023-08-06T05:18:03;19.80;67.90
21335;DHT22;69435;52.670;13.544;2023-08-06T05:20:49;19.80;67.80
21335;DHT22;69435;52.670;13.544;2023-08-06T05:23:35;19.80;67.80
21335;DHT22;69435;52.670;13.544;2023-08-06T05:26:21;19.90;67.80
21335;DHT22;69435;52.670;13.544;2023-08-06T05:29:07;19.90;67.70
21335;DHT22;69435;52.670;13.544;2023-08-06T05:31:53;20.00;67.70
21335;DHT22;69435;52.670;13.544;2023-08-06T05:34:39;19.90;67.70
21335;DHT22;69435;52.670;13.544;2023-08-06T05:37:27;19.90;67.70
21335;DHT22;69435;52.670;13.544;2023-08-06T05:40:13;20.00;67.50
21335;DHT22;69435;52.670;13.544;2023-08-06T05:42:59;20.00;67.30
21335;DHT22;69435;52.670;13.544;2023-08-06T05:45:46;20.00;67.20
21335;DHT22;69435;52.670;13.544;2023-08-06T05:48:32;20.10;67.30
21335;DHT22;69435;52.670;13.544;2023-08-06T05:51:18;20.10;67.30
21335;DHT22;69435;52.670;13.544;2023-08-06T05:54:05;20.20;67.10
21335;DHT22;69435;52.670;13.544;2023-08-06T05:56:51;20.30;67.10
21335;DHT22;69435;52.670;13.544;2023-08-06T05:59:36;20.30;67.10
21335;DHT22;69435;52.670;13.544;2023-08-06T06:02:22;20.40;67.10
21335;DHT22;69435;52.670;13.544;2023-08-06T06:05:09;20.40;67.10
21335;DHT22;69435;52.670;13.544;2023-08-06T06:07:55;20.50;67.00
21335;DHT22;69435;52.670;13.544;2023-08-06T06:10:41;20.50;66.50
21335;DHT22;69435;52.670;13.544;2023-08-06T06:13:27;20.50;66.30
21335;DHT22;69435;52.670;13.544;2023-08-06T06:16:14;20.50;66.20
21335;DHT22;69435;52.670;13.544;2023-08-06T06:19:00;20.60;66.20
21335;DHT22;69435;52.670;13.544;2023-08-06T06:21:46;20.60;66.10
21335;DHT22;69435;52.670;13.544;2023-08-06T06:24:32;20.60;65.90
21335;DHT22;69435;52.670;13.544;2023-08-06T06:27:18;20.60;66.00
21335;DHT22;69435;52.670;13.544;2023-08-06T06:30:04;20.70;65.90
21335;DHT22;69435;52.670;13.544;2023-08-06T06:32:50;20.70;65.70
21335;DHT22;69435;52.670;13.544;2023-08-06T06:35:37;20.70;65.90
21335;DHT22;69435;52.670;13.544;2023-08-06T06:38:23;20.70;66.10
21335;DHT22;69435;52.670;13.544;2023-08-06T06:41:09;20.70;66.20
21335;DHT22;69435;52.670;13.544;2023-08-06T06:43:55;20.80;66.20
21335;DHT22;69435;52.670;13.544;2023-08-06T06:46:41;20.80;65.90
21335;DHT22;69435;52.670;13.544;2023-08-06T06:49:27;20.80;65.90
21335;DHT22;69435;52.670;13.544;2023-08-06T06:52:13;20.80;66.20
21335;DHT22;69435;52.670;13.544;2023-08-06T06:54:59;20.90;66.20
21335;DHT22;69435;52.670;13.544;2023-08-06T06:57:45;20.90;66.10
21335;DHT22;69435;52.670;13.544;2023-08-06T07:00:31;20.80;65.70
21335;DHT22;69435;52.670;13.544;2023-08-06T07:03:17;20.80;66.00
21335;DHT22;69435;52.670;13.544;2023-08-06T07:06:04;20.90;66.50
21335;DHT22;69435;52.670;13.544;2023-08-06T07:08:51;20.90;66.80
21335;DHT22;69435;52.670;13.544;2023-08-06T07:11:37;20.90;66.80
21335;DHT22;69435;52.670;13.544;2023-08-06T07:14:25;21.00;66.50
21335;DHT22;69435;52.670;13.544;2023-08-06T07:17:11;21.00;66.40
21335;DHT22;69435;52.670;13.544;2023-08-06T07:19:57;21.10;66.50
21335;DHT22;69435;52.670;13.544;2023-08-06T07:22:44;21.10;66.30
21335;DHT22;69435;52.670;13.544;2023-08-06T07:25:30;21.20;66.00
21335;DHT22;69435;52.670;13.544;2023-08-06T07:28:16;21.20;65.90
21335;DHT22;69435;52.670;13.544;2023-08-06T07:31:03;21.20;65.90
21335;DHT22;69435;52.670;13.544;2023-08-06T07:33:49;21.20;66.00
21335;DHT22;69435;52.670;13.544;2023-08-06T07:36:35;21.30;66.10
21335;DHT22;69435;52.670;13.544;2023-08-06T07:39:21;21.30;66.00
21335;DHT22;69435;52.670;13.544;2023-08-06T07:42:08;21.30;66.00
21335;DHT22;69435;52.670;13.544;2023-08-06T07:44:58;21.30;65.80
21335;DHT22;69435;52.670;13.544;2023-08-06T07:47:44;21.40;65.70
21335;DHT22;69435;52.670;13.544;2023-08-06T07:50:30;21.40;65.80
21335;DHT22;69435;52.670;13.544;2023-08-06T07:53:17;21.40;65.80
21335;DHT22;69435;52.670;13.544;2023-08-06T07:56:03;21.50;65.90
21335;DHT22;69435;52.670;13.544;2023-08-06T07:58:49;21.50;65.60
21335;DHT22;69435;52.670;13.544;2023-08-06T08:01:35;21.50;65.70
21335;DHT22;69435;52.670;13.544;2023-08-06T08:04:21;21.40;65.60
21335;DHT22;69435;52.670;13.544;2023-08-06T08:07:09;21.40;65.70
21335;DHT22;69435;52.670;13.544;2023-08-06T08:09:56;21.50;66.10
21335;DHT22;69435;52.670;13.544;2023-08-06T08:12:42;21.50;66.40
21335;DHT22;69435;52.670;13.544;2023-08-06T08:15:29;21.50;66.50
21335;DHT22;69435;52.670;13.544;2023-08-06T08:18:16;21.50;66.30
21335;DHT22;69435;52.670;13.544;2023-08-06T08:21:03;21.50;66.20
21335;DHT22;69435;52.670;13.544;2023-08-06T08:23:50;21.50;66.30
21335;DHT22;69435;52.670;13.544;2023-08-06T08:26:36;21.50;66.30
21335;DHT22;69435;52.670;13.544;2023-08-06T08:29:22;21.60;66.30
21335;DHT22;69435;52.670;13.544;2023-08-06T08:32:08;21.60;66.20
21335;DHT22;69435;52.670;13.544;2023-08-06T08:34:54;21.60;66.30
21335;DHT22;69435;52.670;13.544;2023-08-06T08:37:42;21.60;66.50
21335;DHT22;69435;52.670;13.544;2023-08-06T08:40:32;21.60;66.20
21335;DHT22;69435;52.670;13.544;2023-08-06T08:43:23;21.60;66.40
21335;DHT22;69435;52.670;13.544;2023-08-06T08:46:11;21.60;66.00
21335;DHT22;69435;52.670;13.544;2023-08-06T08:48:59;21.60;65.80
21335;DHT22;69435;52.670;13.544;2023-08-06T08:51:46;21.60;65.90
21335;DHT22;69435;52.670;13.544;2023-08-06T08:54:35;21.50;65.70
21335;DHT22;69435;52.670;13.544;2023-08-06T08:57:23;21.60;65.90
21335;DHT22;69435;52.670;13.544;2023-08-06T09:00:10;21.60;66.40
21335;DHT22;69435;52.670;13.544;2023-08-06T09:02:59;21.60;66.40
21335;DHT22;69435;52.670;13.544;2023-08-06T09:05:49;21.60;66.00
21335;DHT22;69435;52.670;13.544;2023-08-06T09:08:43;21.50;65.90
21335;DHT22;69435;52.670;13.544;2023-08-06T09:11:43;21.50;66.10
21335;DHT22;69435;52.670;13.544;2023-08-06T09:14:30;21.50;66.50
21335;DHT22;69435;52.670;13.544;2023-08-06T09:17:16;21.60;66.80
21335;DHT22;69435;52.670;13.544;2023-08-06T09:20:12;21.60;66.70
21335;DHT22;69435;52.670;13.544;2023-08-06T09:23:07;21.60;66.70
21335;DHT22;69435;52.670;13.544;2023-08-06T09:25:54;21.70;66.70
21335;DHT22;69435;52.670;13.544;2023-08-06T09:28:40;21.70;66.60
21335;DHT22;69435;52.670;13.544;2023-08-06T09:34:31;21.80;65.60
21335;DHT22;69435;52.670;13.544;2023-08-06T09:37:17;21.70;65.50
21335;DHT22;69435;52.670;13.544;2023-08-06T09:40:03;21.70;65.60
21335;DHT22;69435;52.670;13.544;2023-08-06T09:42:49;21.70;66.10
21335;DHT22;69435;52.670;13.544;2023-08-06T09:45:37;21.70;65.80
21335;DHT22;69435;52.670;13.544;2023-08-06T09:48:24;21.70;65.70
21335;DHT22;69435;52.670;13.544;2023-08-06T09:51:10;21.70;65.70
21335;DHT22;69435;52.670;13.544;2023-08-06T09:54:00;21.70;65.70
21335;DHT22;69435;52.670;13.544;2023-08-06T09:56:48;21.70;66.40
21335;DHT22;69435;52.670;13.544;2023-08-06T09:59:35;21.70;66.10
21335;DHT22;69435;52.670;13.544;2023-08-06T10:02:25;21.70;66.20
21335;DHT22;69435;52.670;13.544;2023-08-06T10:05:12;21.80;65.80
21335;DHT22;69435;52.670;13.544;2023-08-06T10:07:59;21.80;65.80
21335;DHT22;69435;52.670;13.544;2023-08-06T10:10:47;21.80;65.50
21335;DHT22;69435;52.670;13.544;2023-08-06T10:13:34;21.80;64.80
21335;DHT22;69435;52.670;13.544;2023-08-06T10:16:22;21.90;65.10
21335;DHT22;69435;52.670;13.544;2023-08-06T10:19:12;21.90;65.70
21335;DHT22;69435;52.670;13.544;2023-08-06T10:22:13;21.80;66.40
21335;DHT22;69435;52.670;13.544;2023-08-06T10:25:02;21.80;65.20
21335;DHT22;69435;52.670;13.544;2023-08-06T10:30:57;21.80;65.10
21335;DHT22;69435;52.670;13.544;2023-08-06T10:33:47;21.70;65.40
21335;DHT22;69435;52.670;13.544;2023-08-06T10:36:33;21.80;64.90
21335;DHT22;69435;52.670;13.544;2023-08-06T10:39:19;21.80;65.10
21335;DHT22;69435;52.670;13.544;2023-08-06T10:42:05;21.80;65.00
21335;DHT22;69435;52.670;13.544;2023-08-06T10:45:16;21.80;65.40
21335;DHT22;69435;52.670;13.544;2023-08-06T10:48:04;21.90;64.80
21335;DHT22;69435;52.670;13.544;2023-08-06T10:50:50;21.80;64.70
21335;DHT22;69435;52.670;13.544;2023-08-06T10:53:37;21.80;64.60
21335;DHT22;69435;52.670;13.544;2023-08-06T10:56:25;21.80;65.80
21335;DHT22;69435;52.670;13.544;2023-08-06T10:59:15;21.80;65.30
21335;DHT22;69435;52.670;13.544;2023-08-06T11:02:01;21.80;65.30
21335;DHT22;69435;52.670;13.544;2023-08-06T11:04:48;21.80;64.80
21335;DHT22;69435;52.670;13.544;2023-08-06T11:07:35;21.80;65.10
21335;DHT22;69435;52.670;13.544;2023-08-06T11:10:22;21.80;66.00
21335;DHT22;69435;52.670;13.544;2023-08-06T11:13:07;21.70;65.30
21335;DHT22;69435;52.670;13.544;2023-08-06T11:15:55;21.70;65.30
21335;DHT22;69435;52.670;13.544;2023-08-06T11:18:42;21.70;65.50
21335;DHT22;69435;52.670;13.544;2023-08-06T11:21:28;21.60;65.70
21335;DHT22;69435;52.670;13.544;2023-08-06T11:24:14;21.60;66.10
21335;DHT22;69435;52.670;13.544;2023-08-06T11:27:00;21.60;66.20
21335;DHT22;69435;52.670;13.544;2023-08-06T11:29:47;21.60;66.30
21335;DHT22;69435;52.670;13.544;2023-08-06T11:32:33;21.70;66.60
21335;DHT22;69435;52.670;13.544;2023-08-06T11:35:20;21.70;67.30
21335;DHT22;69435;52.670;13.544;2023-08-06T11:38:07;21.70;66.40
21335;DHT22;69435;52.670;13.544;2023-08-06T11:40:53;21.90;66.80
21335;DHT22;69435;52.670;13.544;2023-08-06T11:43:40;22.00;67.00
21335;DHT22;69435;52.670;13.544;2023-08-06T11:46:26;22.00;67.20
21335;DHT22;69435;52.670;13.544;2023-08-06T11:49:12;22.00;65.20
21335;DHT22;69435;52.670;13.544;2023-08-06T11:51:58;22.00;65.10
21335;DHT22;69435;52.670;13.544;2023-08-06T11:54:44;21.90;65.30
21335;DHT22;69435;52.670;13.544;2023-08-06T11:57:30;21.90;65.30
21335;DHT22;69435;52.670;13.544;2023-08-06T12:00:23;21.90;65.80
21335;DHT22;69435;52.670;13.544;2023-08-06T12:03:10;21.90;66.00
21335;DHT22;69435;52.670;13.544;2023-08-06T12:05:56;21.90;66.10
21335;DHT22;69435;52.670;13.544;2023-08-06T12:08:42;21.90;66.20
21335;DHT22;69435;52.670;13.544;2023-08-06T12:11:28;22.00;65.80
21335;DHT22;69435;52.670;13.544;2023-08-06T12:14:14;21.90;65.90
21335;DHT22;69435;52.670;13.544;2023-08-06T12:17:00;21.90;66.20
21335;DHT22;69435;52.670;13.544;2023-08-06T12:19:48;21.90;66.50
21335;DHT22;69435;52.670;13.544;2023-08-06T12:22:36;21.90;66.40
21335;DHT22;69435;52.670;13.544;2023-08-06T12:25:25;21.90;66.10
21335;DHT22;69435;52.670;13.544;2023-08-06T12:28:11;21.80;66.10
21335;DHT22;69435;52.670;13.544;2023-08-06T12:30:58;21.80;66.80
21335;DHT22;69435;52.670;13.544;2023-08-06T12:33:44;21.90;66.80
21335;DHT22;69435;52.670;13.544;2023-08-06T12:36:30;21.90;66.70
21335;DHT22;69435;52.670;13.544;2023-08-06T12:39:16;21.90;66.70
21335;DHT22;69435;52.670;13.544;2023-08-06T12:42:03;22.00;65.70
21335;DHT22;69435;52.670;13.544;2023-08-06T12:44:50;21.90;65.30
21335;DHT22;69435;52.670;13.544;2023-08-06T12:47:37;21.90;65.10
21335;DHT22;69435;52.670;13.544;2023-08-06T12:50:23;21.90;65.50
21335;DHT22;69435;52.670;13.544;2023-08-06T12:53:09;21.90;65.60
21335;DHT22;69435;52.670;13.544;2023-08-06T12:55:55;21.80;65.70
21335;DHT22;69435;52.670;13.544;2023-08-06T12:58:41;21.80;65.80
21335;DHT22;69435;52.670;13.544;2023-08-06T13:01:28;21.80;66.70
21335;DHT22;69435;52.670;13.544;2023-08-06T13:04:14;21.90;66.10
21335;DHT22;69435;52.670;13.544;2023-08-06T13:07:00;21.90;65.60
21335;DHT22;69435;52.670;13.544;2023-08-06T13:09:46;21.90;65.70
21335;DHT22;69435;52.670;13.544;2023-08-06T13:12:32;21.90;65.40
21335;DHT22;69435;52.670;13.544;2023-08-06T13:15:18;21.90;65.10
21335;DHT22;69435;52.670;13.544;2023-08-06T13:18:06;21.80;65.20
21335;DHT22;69435;52.670;13.544;2023-08-06T13:20:53;21.70;65.00
21335;DHT22;69435;52.670;13.544;2023-08-06T13:23:40;21.60;65.20
21335;DHT22;69435;52.670;13.544;2023-08-06T13:26:26;21.60;65.70
21335;DHT22;69435;52.670;13.544;2023-08-06T13:29:12;21.50;65.60
21335;DHT22;69435;52.670;13.544;2023-08-06T13:31:58;21.50;65.70
21335;DHT22;69435;52.670;13.544;2023-08-06T13:34:44;21.40;65.90
21335;DHT22;69435;52.670;13.544;2023-08-06T13:37:30;21.40;66.30
21335;DHT22;69435;52.670;13.544;2023-08-06T13:40:16;21.40;66.70
21335;DHT22;69435;52.670;13.544;2023-08-06T13:43:02;21.40;66.90
21335;DHT22;69435;52.670;13.544;2023-08-06T13:45:48;21.40;66.80
21335;DHT22;69435;52.670;13.544;2023-08-06T13:48:34;21.30;67.00
21335;DHT22;69435;52.670;13.544;2023-08-06T13:51:20;21.30;67.10
21335;DHT22;69435;52.670;13.544;2023-08-06T13:54:06;21.30;66.80
21335;DHT22;69435;52.670;13.544;2023-08-06T13:56:52;21.20;66.80
21335;DHT22;69435;52.670;13.544;2023-08-06T13:59:39;21.20;66.70
21335;DHT22;69435;52.670;13.544;2023-08-06T14:02:25;21.20;66.40
21335;DHT22;69435;52.670;13.544;2023-08-06T14:05:11;21.10;66.60
21335;DHT22;69435;52.670;13.544;2023-08-06T14:07:57;21.10;66.90
21335;DHT22;69435;52.670;13.544;2023-08-06T14:10:43;21.00;66.40
21335;DHT22;69435;52.670;13.544;2023-08-06T14:13:29;21.00;66.30
21335;DHT22;69435;52.670;13.544;2023-08-06T14:16:15;20.90;66.30
21335;DHT22;69435;52.670;13.544;2023-08-06T14:19:03;20.90;66.40
21335;DHT22;69435;52.670;13.544;2023-08-06T14:21:49;20.80;66.50
21335;DHT22;69435;52.670;13.544;2023-08-06T14:24:35;20.80;66.20
21335;DHT22;69435;52.670;13.544;2023-08-06T14:27:22;20.80;66.80
21335;DHT22;69435;52.670;13.544;2023-08-06T14:30:08;20.70;66.80
21335;DHT22;69435;52.670;13.544;2023-08-06T14:32:55;20.70;66.90
21335;DHT22;69435;52.670;13.544;2023-08-06T14:35:41;20.70;66.80
21335;DHT22;69435;52.670;13.544;2023-08-06T14:38:27;20.70;66.80
21335;DHT22;69435;52.670;13.544;2023-08-06T14:41:13;20.70;67.00
21335;DHT22;69435;52.670;13.544;2023-08-06T14:43:59;20.70;67.00
21335;DHT22;69435;52.670;13.544;2023-08-06T14:46:45;20.60;67.00
21335;DHT22;69435;52.670;13.544;2023-08-06T14:49:31;20.70;67.20
21335;DHT22;69435;52.670;13.544;2023-08-06T14:52:17;20.60;67.00
21335;DHT22;69435;52.670;13.544;2023-08-06T14:55:03;20.60;67.30
21335;DHT22;69435;52.670;13.544;2023-08-06T14:57:50;20.70;67.70
21335;DHT22;69435;52.670;13.544;2023-08-06T15:00:36;20.70;67.50
21335;DHT22;69435;52.670;13.544;2023-08-06T15:03:22;20.70;67.40
21335;DHT22;69435;52.670;13.544;2023-08-06T15:06:08;20.70;67.30
21335;DHT22;69435;52.670;13.544;2023-08-06T15:08:54;20.80;67.40
21335;DHT22;69435;52.670;13.544;2023-08-06T15:11:43;20.80;67.20
21335;DHT22;69435;52.670;13.544;2023-08-06T15:14:29;20.80;67.10
21335;DHT22;69435;52.670;13.544;2023-08-06T15:17:15;20.90;67.30
21335;DHT22;69435;52.670;13.544;2023-08-06T15:20:01;20.90;67.20
21335;DHT22;69435;52.670;13.544;2023-08-06T15:22:50;20.90;67.30
21335;DHT22;69435;52.670;13.544;2023-08-06T15:25:36;20.90;67.20
21335;DHT22;69435;52.670;13.544;2023-08-06T15:28:23;20.90;67.00
21335;DHT22;69435;52.670;13.544;2023-08-06T15:31:09;20.80;66.90
21335;DHT22;69435;52.670;13.544;2023-08-06T15:33:55;20.80;67.00
21335;DHT22;69435;52.670;13.544;2023-08-06T15:36:41;20.80;67.00
21335;DHT22;69435;52.670;13.544;2023-08-06T15:39:27;20.70;67.50
21335;DHT22;69435;52.670;13.544;2023-08-06T15:42:14;20.70;67.10
21335;DHT22;69435;52.670;13.544;2023-08-06T15:45:01;20.70;67.10
21335;DHT22;69435;52.670;13.544;2023-08-06T15:47:49;20.70;67.20
21335;DHT22;69435;52.670;13.544;2023-08-06T15:50:39;20.70;67.20
21335;DHT22;69435;52.670;13.544;2023-08-06T15:53:25;20.70;67.20
21335;DHT22;69435;52.670;13.544;2023-08-06T15:56:11;20.70;67.10
21335;DHT22;69435;52.670;13.544;2023-08-06T15:58:57;20.70;67.10
21335;DHT22;69435;52.670;13.544;2023-08-06T16:01:43;20.60;66.50
21335;DHT22;69435;52.670;13.544;2023-08-06T16:04:30;20.60;66.40
21335;DHT22;69435;52.670;13.544;2023-08-06T16:07:17;20.60;66.40
21335;DHT22;69435;52.670;13.544;2023-08-06T16:10:05;20.50;66.30
21335;DHT22;69435;52.670;13.544;2023-08-06T16:12:51;20.50;66.30
21335;DHT22;69435;52.670;13.544;2023-08-06T16:15:37;20.50;66.20
21335;DHT22;69435;52.670;13.544;2023-08-06T16:18:23;20.40;66.10
21335;DHT22;69435;52.670;13.544;2023-08-06T16:21:10;20.40;66.00
21335;DHT22;69435;52.670;13.544;2023-08-06T16:23:56;20.40;65.90
21335;DHT22;69435;52.670;13.544;2023-08-06T16:26:42;20.30;65.60
21335;DHT22;69435;52.670;13.544;2023-08-06T16:29:28;20.30;65.10
21335;DHT22;69435;52.670;13.544;2023-08-06T16:32:14;20.20;64.70
21335;DHT22;69435;52.670;13.544;2023-08-06T16:35:01;20.20;64.70
21335;DHT22;69435;52.670;13.544;2023-08-06T16:37:47;20.10;64.60
21335;DHT22;69435;52.670;13.544;2023-08-06T16:40:33;20.00;65.00
21335;DHT22;69435;52.670;13.544;2023-08-06T16:43:19;20.00;65.30
21335;DHT22;69435;52.670;13.544;2023-08-06T16:46:05;20.00;66.40
21335;DHT22;69435;52.670;13.544;2023-08-06T16:48:51;19.90;65.80
21335;DHT22;69435;52.670;13.544;2023-08-06T16:51:37;20.00;65.80
21335;DHT22;69435;52.670;13.544;2023-08-06T16:54:23;20.00;66.00
21335;DHT22;69435;52.670;13.544;2023-08-06T16:57:09;20.00;66.20
21335;DHT22;69435;52.670;13.544;2023-08-06T16:59:55;19.90;66.10
21335;DHT22;69435;52.670;13.544;2023-08-06T17:02:41;20.00;65.80
21335;DHT22;69435;52.670;13.544;2023-08-06T17:05:27;19.90;65.50
21335;DHT22;69435;52.670;13.544;2023-08-06T17:08:13;19.80;64.80
21335;DHT22;69435;52.670;13.544;2023-08-06T17:11:00;19.70;64.80
21335;DHT22;69435;52.670;13.544;2023-08-06T17:13:47;19.70;64.80
21335;DHT22;69435;52.670;13.544;2023-08-06T17:16:33;19.60;64.90
21335;DHT22;69435;52.670;13.544;2023-08-06T17:19:19;19.50;64.80
21335;DHT22;69435;52.670;13.544;2023-08-06T17:22:05;19.50;64.70
21335;DHT22;69435;52.670;13.544;2023-08-06T17:24:51;19.50;64.90